Time;durP1;ratioP1;P1;durP2;ratioP2;P2;SDS_P1;SDS_P2;PMS_P1;PMS_P2;Temp;Humidity;BMP_temperature;BMP_pressure;BME280_temperature;BME280_humidity;BME280_pressure;Samples;Min_cycle;Max_cycle;Signal;HPM_P1;HPM_P2
2022/04/13 00:00:09;;;;;;;12.82;8.20;;;13.10;99.90;;;;;;5073188;28;20071;-44
2022/04/13 00:02:35;;;;;;;11.80;6.80;;;13.00;99.90;;;;;;5073131;28;20045;-45
2022/04/13 00:05:01;;;;;;;10.80;7.03;;;13.00;99.90;;;;;;5072789;28;20527;-47
2022/04/13 00:07:28;;;;;;;12.40;7.60;;;13.00;99.90;;;;;;5072968;28;20087;-49
2022/04/13 00:09:55;;;;;;;11.40;7.15;;;12.90;99.90;;;;;;5073022;28;20048;-45
2022/04/13 00:12:22;;;;;;;13.68;7.15;;;12.90;99.90;;;;;;5072804;28;20102;-45
2022/04/13 00:14:47;;;;;;;13.13;7.90;;;12.90;99.90;;;;;;5072882;28;20496;-45
2022/04/13 00:17:13;;;;;;;13.18;7.47;;;12.80;99.90;;;;;;5055036;28;20056;-45
2022/04/13 00:19:39;;;;;;;11.68;7.60;;;12.80;99.90;;;;;;5054922;28;20051;-45
2022/04/13 00:22:05;;;;;;;11.55;7.28;;;12.80;99.90;;;;;;5072754;28;20040;-45
2022/04/13 00:24:30;;;;;;;11.60;7.88;;;12.70;99.90;;;;;;5056136;28;20045;-45
2022/04/13 00:26:57;;;;;;;14.68;8.48;;;12.60;99.90;;;;;;5051556;28;20045;-45
2022/04/13 00:29:24;;;;;;;14.40;8.38;;;12.60;99.90;;;;;;5067983;28;20047;-44
2022/04/13 00:32:01;;;;;;;11.45;7.82;;;12.50;99.90;;;;;;5052549;28;20056;-45
2022/04/13 00:34:26;;;;;;;11.63;7.95;;;12.50;99.90;;;;;;5052564;28;20044;-44
2022/04/13 00:36:52;;;;;;;12.45;7.90;;;12.50;99.90;;;;;;5052882;28;20045;-45
2022/04/13 00:39:17;;;;;;;13.27;7.93;;;12.50;99.90;;;;;;5052614;28;20106;-45
2022/04/13 00:41:43;;;;;;;15.45;7.80;;;12.60;99.90;;;;;;5052430;28;20393;-46
2022/04/13 00:44:10;;;;;;;12.18;7.47;;;12.50;99.90;;;;;;5052383;28;20071;-44
2022/04/13 00:46:36;;;;;;;13.40;8.30;;;12.50;99.90;;;;;;5052185;28;20048;-45
2022/04/13 00:49:05;;;;;;;14.55;8.23;;;12.50;99.90;;;;;;5052293;28;20040;-45
2022/04/13 00:51:31;;;;;;;14.38;8.18;;;12.50;99.90;;;;;;5053410;28;20120;-45
2022/04/13 00:53:58;;;;;;;11.60;7.70;;;12.50;99.90;;;;;;5072175;28;20124;-49
2022/04/13 00:56:27;;;;;;;13.32;8.38;;;12.50;99.90;;;;;;5070939;28;20098;-45
2022/04/13 00:58:57;;;;;;;12.98;8.02;;;12.50;99.90;;;;;;5072213;28;20111;-46
2022/04/13 01:01:25;;;;;;;12.98;8.35;;;12.40;99.90;;;;;;5071950;28;20040;-46
2022/04/13 01:03:52;;;;;;;14.75;8.15;;;12.50;99.90;;;;;;5071924;28;20052;-46
2022/04/13 01:06:19;;;;;;;14.80;8.50;;;12.50;99.90;;;;;;5070725;28;20072;-47
2022/04/13 01:08:49;;;;;;;13.15;8.85;;;12.50;99.90;;;;;;5071891;28;20041;-45
2022/04/13 01:11:16;;;;;;;12.60;8.10;;;12.50;99.90;;;;;;5072090;28;20045;-44
2022/04/13 01:13:42;;;;;;;12.93;8.63;;;12.50;99.90;;;;;;5072012;28;20080;-46
2022/04/13 01:16:07;;;;;;;14.98;8.80;;;12.50;99.90;;;;;;5071913;28;20068;-45
2022/04/13 01:18:34;;;;;;;12.05;8.65;;;12.40;99.90;;;;;;5071935;28;20044;-44
2022/04/13 01:21:01;;;;;;;15.57;9.52;;;12.40;99.90;;;;;;5070937;28;20377;-45
2022/04/13 01:23:27;;;;;;;15.00;9.10;;;12.40;99.90;;;;;;5063898;28;20555;-44
2022/04/13 01:25:54;;;;;;;14.50;8.95;;;12.50;99.90;;;;;;5051734;28;20538;-44
2022/04/13 01:28:22;;;;;;;15.98;9.30;;;12.50;99.90;;;;;;5050194;28;20041;-49
2022/04/13 01:30:47;;;;;;;14.77;9.88;;;12.50;99.90;;;;;;5051461;28;20398;-44
2022/04/13 01:33:13;;;;;;;15.95;10.02;;;12.50;99.90;;;;;;5051558;28;20052;-44
2022/04/13 01:35:39;;;;;;;13.80;9.70;;;12.40;99.90;;;;;;5051732;28;20083;-46
2022/04/13 01:38:05;;;;;;;17.88;10.30;;;12.50;99.90;;;;;;5051862;28;20049;-44
2022/04/13 01:40:31;;;;;;;16.33;9.40;;;12.40;99.90;;;;;;5051695;28;20041;-46
2022/04/13 01:42:57;;;;;;;14.60;9.40;;;12.40;99.90;;;;;;5067001;28;20041;-47
2022/04/13 01:45:22;;;;;;;17.67;11.48;;;12.40;99.90;;;;;;5051852;28;20171;-44
2022/04/13 01:47:49;;;;;;;15.43;9.90;;;12.40;99.90;;;;;;5051720;28;20440;-45
2022/04/13 01:50:19;;;;;;;14.48;10.55;;;12.40;99.90;;;;;;5051526;28;20098;-45
2022/04/13 01:52:46;;;;;;;15.30;10.82;;;12.40;99.90;;;;;;5063236;28;20052;-45
2022/04/13 01:55:13;;;;;;;16.10;10.40;;;12.40;99.90;;;;;;5071576;28;20032;-47
2022/04/13 01:57:39;;;;;;;15.13;10.90;;;12.40;99.90;;;;;;5071449;28;20052;-45
2022/04/13 02:00:08;;;;;;;18.67;10.85;;;12.40;99.90;;;;;;5071779;28;20047;-44
2022/04/13 02:02:34;;;;;;;15.65;10.93;;;12.40;99.90;;;;;;5071676;28;20041;-49
2022/04/13 02:04:59;;;;;;;17.30;11.88;;;12.40;99.90;;;;;;5071567;28;20408;-49
2022/04/13 02:07:26;;;;;;;15.30;10.77;;;12.40;99.90;;;;;;5071421;28;20043;-44
2022/04/13 02:09:53;;;;;;;16.88;10.60;;;12.40;99.90;;;;;;5071413;28;20565;-45
2022/04/13 02:12:19;;;;;;;15.18;10.75;;;12.40;99.90;;;;;;5071352;28;20028;-45
2022/04/13 02:14:44;;;;;;;15.70;11.43;;;12.30;99.90;;;;;;5070331;28;20473;-46
2022/04/13 02:17:14;;;;;;;19.17;12.30;;;12.40;99.90;;;;;;5071492;28;20055;-45
2022/04/13 02:19:41;;;;;;;20.20;12.48;;;12.30;99.90;;;;;;5070576;28;20040;-46
2022/04/13 02:22:08;;;;;;;17.23;11.90;;;12.30;99.90;;;;;;5075463;28;20123;-47
2022/04/13 02:24:39;;;;;;;18.40;12.07;;;12.30;99.90;;;;;;5057712;28;20433;-46
2022/04/13 02:27:07;;;;;;;16.13;11.73;;;12.30;99.90;;;;;;5055086;28;20056;-46
2022/04/13 02:29:36;;;;;;;19.48;12.95;;;12.40;99.90;;;;;;5053758;28;20374;-46
2022/04/13 02:32:03;;;;;;;21.25;13.93;;;12.40;99.90;;;;;;5054666;28;20049;-45
2022/04/13 02:34:29;;;;;;;25.27;14.23;;;12.40;99.90;;;;;;5070247;28;20084;-45
2022/04/13 02:36:55;;;;;;;18.88;12.73;;;12.40;99.90;;;;;;5054821;28;20456;-44
2022/04/13 02:39:20;;;;;;;21.63;13.05;;;12.40;99.90;;;;;;5054677;28;20140;-44
2022/04/13 02:41:46;;;;;;;21.00;13.65;;;12.40;99.90;;;;;;5054504;28;20132;-46
2022/04/13 02:44:12;;;;;;;22.67;13.65;;;12.40;99.90;;;;;;5054840;28;20040;-45
2022/04/13 02:46:38;;;;;;;20.42;13.90;;;12.30;99.90;;;;;;5054629;28;20420;-46
2022/04/13 02:49:03;;;;;;;21.98;13.55;;;12.30;99.90;;;;;;5054663;28;20112;-48
2022/04/13 02:51:29;;;;;;;22.60;14.52;;;12.30;99.90;;;;;;5055699;28;20099;-47
2022/04/13 02:53:55;;;;;;;24.85;14.43;;;12.30;99.90;;;;;;5073212;28;20033;-46
2022/04/13 02:56:21;;;;;;;19.30;13.85;;;12.30;99.90;;;;;;5074595;28;20051;-45
2022/04/13 02:58:46;;;;;;;22.38;13.80;;;12.30;99.90;;;;;;5074514;28;20036;-45
2022/04/13 03:01:12;;;;;;;21.17;14.50;;;12.20;99.90;;;;;;5074488;28;20078;-46
2022/04/13 03:03:38;;;;;;;25.58;15.18;;;12.20;99.90;;;;;;5056447;28;20392;-45
2022/04/13 03:06:03;;;;;;;21.50;15.10;;;12.10;99.90;;;;;;5074203;28;20115;-45
2022/04/13 03:08:29;;;;;;;23.52;14.88;;;12.20;99.90;;;;;;5073955;28;20048;-45
2022/04/13 03:10:55;;;;;;;23.75;14.63;;;12.20;99.90;;;;;;5072238;28;20060;-45
2022/04/13 03:13:21;;;;;;;24.50;14.80;;;12.10;99.90;;;;;;5073717;28;20469;-46
2022/04/13 03:15:46;;;;;;;22.27;15.23;;;12.20;99.90;;;;;;5073886;28;20051;-46
2022/04/13 03:18:12;;;;;;;23.90;14.57;;;12.10;99.90;;;;;;5074008;28;20404;-45
2022/04/13 03:20:38;;;;;;;25.15;15.57;;;12.10;99.90;;;;;;5073971;28;20435;-46
2022/04/13 03:23:04;;;;;;;23.83;14.77;;;12.20;99.90;;;;;;5069567;28;20508;-44
2022/04/13 03:25:30;;;;;;;29.38;14.73;;;12.10;99.90;;;;;;5054089;28;20036;-43
2022/04/13 03:27:55;;;;;;;23.15;14.88;;;12.10;99.90;;;;;;5053760;28;20140;-44
2022/04/13 03:30:22;;;;;;;22.65;15.05;;;12.10;99.90;;;;;;5053736;28;20397;-44
2022/04/13 03:32:50;;;;;;;26.75;15.30;;;12.00;99.90;;;;;;5053552;28;20053;-45
2022/04/13 03:35:15;;;;;;;25.85;15.35;;;12.10;99.90;;;;;;5052700;28;20068;-46
2022/04/13 03:37:41;;;;;;;24.45;15.55;;;12.00;99.90;;;;;;5052195;28;20474;-44
2022/04/13 03:40:09;;;;;;;24.50;14.88;;;12.00;99.90;;;;;;5053838;28;20045;-44
2022/04/13 03:42:36;;;;;;;26.15;15.25;;;12.00;99.90;;;;;;5053473;28;20485;-46
2022/04/13 03:45:07;;;;;;;27.50;15.77;;;12.00;99.90;;;;;;5052334;28;20048;-45
2022/04/13 03:47:33;;;;;;;25.55;15.18;;;11.90;99.90;;;;;;5053425;28;20401;-46
2022/04/13 03:49:59;;;;;;;26.90;15.07;;;11.90;99.90;;;;;;5053216;28;20037;-45
2022/04/13 03:52:25;;;;;;;25.33;16.17;;;11.90;99.90;;;;;;5051770;28;20532;-46
2022/04/13 03:54:51;;;;;;;24.58;14.70;;;11.80;99.90;;;;;;5053441;28;20040;-46
2022/04/13 03:57:17;;;;;;;25.73;16.38;;;11.80;99.90;;;;;;5053405;28;20076;-46
2022/04/13 03:59:42;;;;;;;25.55;16.33;;;11.80;99.90;;;;;;5053270;28;20068;-45
2022/04/13 04:02:08;;;;;;;29.20;17.52;;;11.80;99.90;;;;;;5053268;28;20435;-45
2022/04/13 04:04:34;;;;;;;24.80;16.23;;;11.80;99.90;;;;;;5053054;28;20041;-46
2022/04/13 04:07:00;;;;;;;30.23;16.50;;;11.70;99.90;;;;;;5051970;28;20162;-46
2022/04/13 04:09:25;;;;;;;24.48;17.13;;;11.70;99.90;;;;;;5053153;28;20028;-46
2022/04/13 04:11:51;;;;;;;25.20;16.08;;;11.70;99.90;;;;;;5053136;28;20052;-45
2022/04/13 04:14:17;;;;;;;28.30;17.30;;;11.70;99.90;;;;;;5051617;28;20048;-46
2022/04/13 04:16:42;;;;;;;28.23;18.15;;;11.70;99.90;;;;;;5052727;28;20047;-44
2022/04/13 04:19:08;;;;;;;22.67;16.30;;;11.60;99.90;;;;;;5052740;28;20110;-45
2022/04/13 04:21:34;;;;;;;28.38;17.45;;;11.60;99.90;;;;;;5052425;28;20041;-45
2022/04/13 04:24:00;;;;;;;28.73;19.30;;;11.70;99.90;;;;;;5052606;28;20044;-45
2022/04/13 04:26:26;;;;;;;26.75;16.98;;;11.60;99.90;;;;;;5052679;28;20443;-45
2022/04/13 04:28:52;;;;;;;27.75;17.42;;;11.60;99.90;;;;;;5052593;28;20155;-45
2022/04/13 04:31:49;;;;;;;27.92;17.30;;;11.50;99.90;;;;;;5052352;28;20140;-46
2022/04/13 04:34:04;;;;;;;24.20;16.65;;;11.60;99.90;;;;;;5052413;28;20052;-45
2022/04/13 04:36:30;;;;;;;27.33;17.05;;;11.60;99.90;;;;;;5052657;28;20393;-48
2022/04/13 04:38:56;;;;;;;23.77;16.48;;;11.60;99.90;;;;;;5052617;28;20119;-45
2022/04/13 04:41:21;;;;;;;27.52;18.65;;;11.50;99.90;;;;;;5052592;28;20595;-46
2022/04/13 04:43:47;;;;;;;25.50;18.00;;;11.50;99.90;;;;;;5051786;28;20095;-44
2022/04/13 04:46:12;;;;;;;30.17;18.45;;;11.50;99.90;;;;;;5052182;28;20076;-45
2022/04/13 04:48:42;;;;;;;27.25;17.15;;;11.60;99.90;;;;;;5052034;28;20045;-47
2022/04/13 04:51:08;;;;;;;28.38;18.33;;;11.40;99.90;;;;;;5052551;28;20139;-44
2022/04/13 04:53:34;;;;;;;31.92;18.02;;;11.50;99.90;;;;;;5070622;28;20048;-46
2022/04/13 04:56:00;;;;;;;28.90;17.38;;;11.50;99.90;;;;;;5072145;28;20085;-45
2022/04/13 04:58:26;;;;;;;26.13;17.73;;;11.50;99.90;;;;;;5072119;28;20524;-45
2022/04/13 05:00:53;;;;;;;27.17;17.63;;;11.50;99.90;;;;;;5072131;28;20044;-44
2022/04/13 05:03:18;;;;;;;28.95;18.42;;;11.40;99.90;;;;;;5072049;28;20106;-45
2022/04/13 05:05:44;;;;;;;27.77;17.60;;;11.50;99.90;;;;;;5072133;28;20033;-44
2022/04/13 05:08:10;;;;;;;26.02;18.45;;;11.50;99.90;;;;;;5071940;28;20072;-44
2022/04/13 05:10:35;;;;;;;29.48;17.90;;;11.60;99.90;;;;;;5070818;28;20037;-45
2022/04/13 05:13:02;;;;;;;29.35;18.05;;;11.60;99.90;;;;;;5071919;28;20047;-45
2022/04/13 05:15:28;;;;;;;26.38;18.50;;;11.60;99.90;;;;;;5071908;28;20162;-45
2022/04/13 05:17:55;;;;;;;28.05;17.88;;;11.60;99.90;;;;;;5072072;28;20037;-46
2022/04/13 05:20:21;;;;;;;25.73;17.25;;;11.70;99.90;;;;;;5072035;28;20370;-46
2022/04/13 05:22:46;;;;;;;25.92;18.08;;;11.70;99.90;;;;;;5069553;28;20040;-51
2022/04/13 05:25:14;;;;;;;26.02;17.45;;;11.70;99.90;;;;;;5051957;28;20045;-51
2022/04/13 05:27:40;;;;;;;24.80;16.58;;;11.70;99.90;;;;;;5051806;28;20505;-51
2022/04/13 05:30:08;;;;;;;25.42;16.00;;;11.60;99.90;;;;;;5052399;28;20037;-50
2022/04/13 05:32:53;;;;;;;27.55;17.67;;;11.70;99.90;;;;;;5051841;28;20057;-51
2022/04/13 05:35:19;;;;;;;27.70;17.83;;;11.70;99.90;;;;;;5051797;28;20550;-51
2022/04/13 05:37:45;;;;;;;26.33;16.55;;;11.70;99.90;;;;;;5052001;28;20099;-50
2022/04/13 05:40:11;;;;;;;27.15;16.33;;;11.80;99.90;;;;;;5051801;28;20047;-50
2022/04/13 05:42:37;;;;;;;27.42;17.70;;;11.80;99.90;;;;;;5051732;28;20466;-52
2022/04/13 05:45:03;;;;;;;29.08;17.13;;;11.80;99.90;;;;;;5052127;28;20065;-51
2022/04/13 05:47:29;;;;;;;26.52;18.58;;;11.80;99.90;;;;;;5066225;28;20538;-51
2022/04/13 05:49:55;;;;;;;24.85;17.70;;;11.80;99.90;;;;;;5082577;28;20077;-52
2022/04/13 05:52:21;;;;;;;25.65;17.25;;;11.90;99.90;;;;;;5058630;28;20040;-51
2022/04/13 05:54:46;;;;;;;27.73;17.63;;;11.90;99.90;;;;;;5070850;28;20040;-52
2022/04/13 05:57:12;;;;;;;27.98;18.33;;;11.90;99.90;;;;;;5073112;28;20381;-51
2022/04/13 05:59:38;;;;;;;28.50;17.90;;;12.00;99.90;;;;;;5040393;28;20087;-51
2022/04/13 06:02:04;;;;;;;28.20;18.88;;;12.00;99.90;;;;;;5054992;28;20041;-50
2022/04/13 06:04:30;;;;;;;28.02;18.33;;;12.00;99.90;;;;;;5052889;28;20300;-54
2022/04/13 06:06:56;;;;;;;27.75;17.80;;;12.10;99.90;;;;;;5053492;28;20037;-51
2022/04/13 06:09:22;;;;;;;26.05;17.92;;;12.00;99.90;;;;;;5054910;28;20442;-54
2022/04/13 06:11:49;;;;;;;25.85;17.95;;;12.10;99.90;;;;;;5052687;28;20104;-50
2022/04/13 06:14:15;;;;;;;30.02;19.45;;;12.20;99.90;;;;;;5053887;28;20033;-53
2022/04/13 06:16:41;;;;;;;31.15;18.92;;;12.20;99.90;;;;;;5054172;28;20116;-51
2022/04/13 06:19:07;;;;;;;32.03;19.48;;;12.20;99.90;;;;;;5053719;28;20091;-50
2022/04/13 06:21:33;;;;;;;31.20;19.30;;;12.30;99.90;;;;;;5053898;28;20074;-50
2022/04/13 06:23:58;;;;;;;25.88;18.33;;;12.30;99.90;;;;;;5041198;28;20132;-50
2022/04/13 06:26:24;;;;;;;30.05;18.67;;;12.30;99.90;;;;;;5034178;28;20448;-51
2022/04/13 06:28:50;;;;;;;31.17;21.08;;;12.30;99.90;;;;;;5032594;28;20041;-50
2022/04/13 06:31:15;;;;;;;31.77;18.90;;;12.30;99.90;;;;;;5033658;28;20088;-50
2022/04/13 06:33:41;;;;;;;35.40;20.27;;;12.40;99.90;;;;;;5032561;28;20042;-50
2022/04/13 06:36:08;;;;;;;27.10;19.13;;;12.40;99.90;;;;;;5033745;28;20049;-50
2022/04/13 06:38:34;;;;;;;35.72;20.73;;;12.50;99.90;;;;;;5034019;28;20079;-54
2022/04/13 06:41:00;;;;;;;31.30;19.48;;;12.60;99.90;;;;;;5033369;28;20037;-52
2022/04/13 06:43:26;;;;;;;28.73;19.13;;;12.80;99.90;;;;;;5033588;28;20037;-55
2022/04/13 06:45:54;;;;;;;30.08;19.48;;;12.70;99.90;;;;;;5032160;28;20041;-55
2022/04/13 06:48:21;;;;;;;29.10;17.98;;;12.80;99.90;;;;;;5033210;28;20073;-53
2022/04/13 06:50:47;;;;;;;29.48;18.77;;;12.90;99.90;;;;;;5031893;28;20046;-55
2022/04/13 06:53:14;;;;;;;30.58;19.90;;;12.80;99.90;;;;;;5063865;28;20041;-55
2022/04/13 06:55:40;;;;;;;28.10;18.55;;;12.90;99.90;;;;;;5043549;28;20040;-55
2022/04/13 06:58:06;;;;;;;27.75;19.42;;;12.90;99.90;;;;;;5040922;28;20064;-55
2022/04/13 07:00:32;;;;;;;30.35;18.65;;;12.90;99.90;;;;;;5033091;28;20049;-52
2022/04/13 07:02:58;;;;;;;32.85;19.98;;;12.90;99.90;;;;;;5032968;28;20111;-53
2022/04/13 07:05:28;;;;;;;30.20;19.70;;;12.80;99.90;;;;;;5032497;28;20084;-54
2022/04/13 07:07:57;;;;;;;32.20;19.70;;;13.00;99.90;;;;;;5032605;28;20045;-55
2022/04/13 07:10:26;;;;;;;28.80;18.50;;;13.00;99.90;;;;;;5032912;28;20044;-51
2022/04/13 07:12:54;;;;;;;36.10;18.75;;;13.00;99.90;;;;;;5031948;28;20072;-53
2022/04/13 07:15:20;;;;;;;26.35;16.92;;;13.00;99.90;;;;;;5033103;28;20037;-52
2022/04/13 07:17:46;;;;;;;26.45;18.10;;;13.20;99.90;;;;;;5031991;28;20044;-54
2022/04/13 07:20:13;;;;;;;25.98;16.25;;;13.20;99.90;;;;;;5032174;28;20159;-50
2022/04/13 07:22:53;;;;;;;26.80;16.10;;;13.30;99.90;;;;;;5032465;28;20053;-53
2022/04/13 07:25:19;;;;;;;24.50;15.88;;;13.40;99.90;;;;;;5032159;28;20132;-51
2022/04/13 07:27:46;;;;;;;23.63;15.88;;;13.40;99.90;;;;;;5032481;28;20045;-52
2022/04/13 07:30:13;;;;;;;26.05;15.95;;;13.50;99.90;;;;;;5038215;28;20033;-50
2022/04/13 07:32:40;;;;;;;25.27;15.65;;;13.50;99.90;;;;;;5032409;28;20053;-51
2022/04/13 07:35:06;;;;;;;24.98;14.90;;;13.50;99.90;;;;;;5032129;28;20200;-51
2022/04/13 07:37:32;;;;;;;21.20;14.27;;;13.50;99.90;;;;;;5032342;28;20461;-52
2022/04/13 07:39:58;;;;;;;23.27;14.98;;;13.70;99.90;;;;;;5030876;28;20068;-51
2022/04/13 07:42:26;;;;;;;22.25;14.90;;;13.70;99.90;;;;;;5032370;28;20121;-50
2022/04/13 07:44:52;;;;;;;24.73;15.32;;;13.50;99.90;;;;;;5030661;28;20052;-51
2022/04/13 07:47:19;;;;;;;29.35;14.98;;;13.50;99.90;;;;;;5032118;28;20321;-52
2022/04/13 07:49:45;;;;;;;24.85;15.18;;;13.50;99.90;;;;;;5030978;28;20463;-51
2022/04/13 07:52:11;;;;;;;24.63;15.18;;;13.60;99.90;;;;;;5045833;28;20071;-54
2022/04/13 07:54:37;;;;;;;24.50;15.23;;;13.60;99.90;;;;;;5072003;28;20036;-53
2022/04/13 07:57:03;;;;;;;24.50;15.25;;;13.60;99.90;;;;;;5071601;28;20040;-53
2022/04/13 07:59:29;;;;;;;24.92;16.35;;;13.70;99.90;;;;;;5070228;28;20044;-52
2022/04/13 08:01:55;;;;;;;26.00;16.33;;;13.60;99.90;;;;;;5070533;28;20038;-53
2022/04/13 08:04:20;;;;;;;24.45;14.68;;;13.50;99.90;;;;;;5071484;28;20512;-52
2022/04/13 08:06:46;;;;;;;22.85;14.70;;;13.40;99.90;;;;;;5071780;28;20450;-51
2022/04/13 08:09:12;;;;;;;24.02;14.73;;;13.70;99.90;;;;;;5053596;28;20071;-50
2022/04/13 08:11:38;;;;;;;19.90;13.90;;;13.80;99.90;;;;;;5071492;28;20043;-53
2022/04/13 08:14:04;;;;;;;23.73;14.68;;;13.90;99.90;;;;;;5071498;28;20060;-51
2022/04/13 08:16:29;;;;;;;21.58;14.27;;;14.10;99.90;;;;;;5071420;28;20036;-53
2022/04/13 08:18:55;;;;;;;22.35;13.73;;;14.20;99.90;;;;;;5070672;28;20094;-54
2022/04/13 08:21:21;;;;;;;28.42;15.88;;;14.30;99.90;;;;;;5071468;28;20075;-54
2022/04/13 08:23:46;;;;;;;24.10;14.27;;;14.40;99.90;;;;;;5061663;28;20114;-52
2022/04/13 08:26:12;;;;;;;22.77;14.27;;;14.50;99.90;;;;;;5052839;28;20048;-52
2022/04/13 08:28:38;;;;;;;24.02;14.10;;;14.60;99.90;;;;;;5051296;28;20102;-51
2022/04/13 08:31:04;;;;;;;19.25;14.02;;;14.60;99.90;;;;;;5052512;28;20033;-54
2022/04/13 08:33:33;;;;;;;27.25;14.38;;;14.50;99.90;;;;;;5052319;28;20472;-55
2022/04/13 08:35:58;;;;;;;21.35;13.93;;;14.80;99.90;;;;;;5052727;28;20444;-50
2022/04/13 08:38:24;;;;;;;28.63;13.32;;;15.20;99.90;;;;;;5052865;28;20041;-55
2022/04/13 08:40:58;;;;;;;17.60;11.13;;;15.10;99.90;;;;;;5052628;28;20481;-54
2022/04/13 08:44:01;;;;;;;21.25;12.48;;;15.00;99.90;;;;;;5067557;28;20178;-54
2022/04/13 08:46:27;;;;;;;;;;;14.90;99.90;;;;;;5048875;28;20053;-55
2022/04/13 08:48:56;;;;;;;16.95;10.70;;;15.10;99.90;;;;;;5052538;28;19917;-51
2022/04/13 08:51:24;;;;;;;20.15;11.65;;;15.10;99.90;;;;;;5051247;28;20044;-54
2022/04/13 08:54:05;;;;;;;22.13;11.18;;;15.10;99.90;;;;;;5070933;28;20076;-51
2022/04/13 08:56:35;;;;;;;20.38;12.30;;;15.10;99.90;;;;;;5072175;28;20040;-54
2022/04/13 08:59:07;;;;;;;17.08;11.38;;;15.10;99.90;;;;;;5072292;28;20058;-53
2022/04/13 09:01:38;;;;;;;19.92;11.30;;;15.10;99.90;;;;;;5072133;28;20045;-52
2022/04/13 09:04:11;;;;;;;20.67;11.32;;;15.00;99.90;;;;;;5072121;28;20098;-53
2022/04/13 09:06:42;;;;;;;19.55;10.90;;;15.00;99.90;;;;;;5072004;28;20052;-52
2022/04/13 09:09:27;;;;;;;16.95;11.00;;;15.00;99.90;;;;;;5072246;28;20032;-52
2022/04/13 09:11:56;;;;;;;18.58;11.93;;;15.00;99.90;;;;;;5072185;28;20047;-50
2022/04/13 09:14:22;;;;;;;18.30;11.48;;;15.10;99.90;;;;;;5072014;28;20498;-53
2022/04/13 09:16:48;;;;;;;24.25;12.77;;;15.10;99.90;;;;;;5071951;28;20044;-51
2022/04/13 09:19:15;;;;;;;19.42;12.25;;;15.20;99.90;;;;;;5071885;28;20185;-53
2022/04/13 09:21:42;;;;;;;21.65;12.55;;;15.10;99.90;;;;;;5071800;28;20040;-54
2022/04/13 09:24:09;;;;;;;20.40;12.93;;;15.40;99.90;;;;;;5058268;28;20120;-54
2022/04/13 09:26:35;;;;;;;21.10;14.07;;;15.30;99.90;;;;;;5050567;28;20052;-54
2022/04/13 09:29:02;;;;;;;20.90;12.05;;;15.50;99.90;;;;;;5053754;28;20116;-52
2022/04/13 09:31:27;;;;;;;20.52;11.75;;;15.50;99.90;;;;;;5073942;28;20106;-54
2022/04/13 09:33:54;;;;;;;20.13;12.93;;;15.60;99.90;;;;;;5073868;28;20552;-52
2022/04/13 09:36:20;;;;;;;19.45;11.15;;;15.70;99.90;;;;;;5058745;28;20496;-54
2022/04/13 09:38:46;;;;;;;18.13;12.10;;;15.70;99.90;;;;;;5058600;28;20120;-53
2022/04/13 09:41:12;;;;;;;22.25;12.57;;;15.80;99.90;;;;;;5058257;28;20490;-54
2022/04/13 09:43:38;;;;;;;20.45;12.50;;;15.90;99.90;;;;;;5058388;28;20174;-54
2022/04/13 09:46:05;;;;;;;16.25;11.45;;;15.90;99.90;;;;;;5058409;28;20041;-54
2022/04/13 09:48:31;;;;;;;16.50;10.98;;;16.00;99.90;;;;;;5058280;28;20036;-52
2022/04/13 09:50:58;;;;;;;19.73;11.30;;;16.10;99.90;;;;;;5090959;28;20473;-54
2022/04/13 09:53:24;;;;;;;16.13;10.88;;;16.20;99.90;;;;;;5075223;28;20033;-54
2022/04/13 09:55:52;;;;;;;15.73;11.02;;;16.30;99.90;;;;;;5078398;28;20040;-54
2022/04/13 09:58:19;;;;;;;16.90;12.10;;;16.30;99.90;;;;;;5078271;28;20037;-55
2022/04/13 10:00:48;;;;;;;18.50;11.55;;;16.30;99.90;;;;;;5078322;28;20044;-51
2022/04/13 10:03:19;;;;;;;19.40;10.68;;;16.40;99.90;;;;;;5078100;28;20485;-51
2022/04/13 10:05:47;;;;;;;18.40;10.88;;;16.40;99.90;;;;;;5078125;28;20560;-52
2022/04/13 10:08:14;;;;;;;15.25;10.13;;;16.30;99.90;;;;;;5078318;28;20037;-52
2022/04/13 10:10:42;;;;;;;16.15;9.65;;;16.40;99.90;;;;;;5078166;28;20082;-51
2022/04/13 10:13:08;;;;;;;18.05;9.40;;;16.60;99.90;;;;;;5078224;28;20457;-51
2022/04/13 10:15:34;;;;;;;18.50;9.85;;;16.40;99.90;;;;;;5077977;28;20089;-50
2022/04/13 10:18:01;;;;;;;14.68;9.30;;;16.50;99.90;;;;;;5078069;28;20052;-52
2022/04/13 10:20:47;;;;;;;14.80;8.50;;;16.70;99.90;;;;;;5078200;28;20048;-54
2022/04/13 10:23:14;;;;;;;13.98;7.88;;;16.60;99.90;;;;;;5071764;28;20481;-54
2022/04/13 10:25:40;;;;;;;13.00;7.68;;;16.70;99.90;;;;;;5058988;28;20040;-53
2022/04/13 10:28:06;;;;;;;11.25;7.22;;;16.70;99.90;;;;;;5057804;28;20120;-54
2022/04/13 10:30:32;;;;;;;14.23;7.53;;;16.70;99.90;;;;;;5058190;28;20091;-54
2022/04/13 10:32:59;;;;;;;13.15;7.03;;;16.70;99.90;;;;;;5057854;28;20084;-52
2022/04/13 10:35:26;;;;;;;12.52;7.20;;;17.00;99.90;;;;;;5058002;28;20047;-51
2022/04/13 10:37:52;;;;;;;13.27;7.82;;;17.10;99.90;;;;;;5057999;28;20128;-55
2022/04/13 10:40:20;;;;;;;15.30;6.88;;;17.20;99.90;;;;;;5056778;28;20120;-54
2022/04/13 10:42:50;;;;;;;16.85;8.00;;;17.30;99.90;;;;;;5054770;28;20049;-55
2022/04/13 10:45:17;;;;;;;14.02;8.07;;;17.30;99.90;;;;;;5054104;28;20417;-54
2022/04/13 10:47:50;;;;;;;16.02;8.00;;;17.30;99.90;;;;;;5054106;28;20076;-52
2022/04/13 10:50:24;;;;;;;13.48;8.27;;;17.30;99.90;;;;;;5053235;28;20045;-53
2022/04/13 10:52:58;;;;;;;13.73;8.52;;;17.20;99.90;;;;;;5065331;28;20040;-53
2022/04/13 10:55:27;;;;;;;15.98;8.52;;;17.20;99.90;;;;;;5074451;28;20098;-52
2022/04/13 10:57:56;;;;;;;14.77;7.90;;;17.50;99.90;;;;;;5074402;28;20056;-55
2022/04/13 11:00:23;;;;;;;13.90;7.78;;;17.60;99.90;;;;;;5074519;28;20048;-54
2022/04/13 11:02:54;;;;;;;13.38;7.00;;;17.60;99.90;;;;;;5072988;28;20059;-52
2022/04/13 11:05:25;;;;;;;13.90;7.13;;;17.50;99.90;;;;;;5059249;28;20044;-51
2022/04/13 11:08:29;;;;;;;16.15;7.60;;;17.60;99.90;;;;;;5043281;28;20046;-55
2022/04/13 11:10:56;;;;;;;17.08;7.50;;;17.60;99.90;;;;;;5045399;28;20445;-54
2022/04/13 11:13:22;;;;;;;11.57;6.10;;;17.50;99.90;;;;;;5034873;28;20084;-55
2022/04/13 11:15:50;;;;;;;12.68;5.97;;;17.40;99.90;;;;;;5034047;28;20084;-51
2022/04/13 11:18:20;;;;;;;10.77;5.47;;;17.20;99.90;;;;;;5032646;28;20486;-55
2022/04/13 11:21:05;;;;;;;11.02;6.00;;;17.10;99.90;;;;;;5033603;28;20569;-55
2022/04/13 11:23:49;;;;;;;15.93;6.07;;;17.10;99.90;;;;;;5042653;28;20044;-54
2022/04/13 11:26:23;;;;;;;15.95;7.00;;;16.90;99.90;;;;;;5069223;28;20503;-51
2022/04/13 11:29:09;;;;;;;13.15;6.40;;;16.80;99.90;;;;;;5053742;28;20057;-53
2022/04/13 11:32:00;;;;;;;14.70;7.15;;;16.80;99.90;;;;;;5053260;28;20052;-48
2022/04/13 11:34:41;;;;;;;11.60;6.10;;;16.90;99.90;;;;;;5053398;28;20068;-52
2022/04/13 11:37:10;;;;;;;14.65;5.47;;;16.90;99.90;;;;;;5053983;28;20051;-51
2022/04/13 11:39:57;;;;;;;11.18;5.72;;;16.90;99.90;;;;;;5053725;28;20401;-49
2022/04/13 11:42:25;;;;;;;11.90;5.93;;;16.70;99.90;;;;;;5053727;28;20048;-53
2022/04/13 11:45:02;;;;;;;14.43;5.70;;;16.80;99.90;;;;;;5053496;28;20107;-52
2022/04/13 11:47:58;;;;;;;11.88;5.30;;;16.60;99.90;;;;;;5053277;28;20088;-53
2022/04/13 11:50:32;;;;;;;10.85;5.60;;;16.50;99.90;;;;;;5053059;28;20170;-51
2022/04/13 11:53:03;;;;;;;13.25;5.20;;;16.50;99.90;;;;;;5065494;28;20091;-51
2022/04/13 11:55:43;;;;;;;13.30;5.63;;;16.60;99.90;;;;;;5073281;28;20046;-53
2022/04/13 11:58:09;;;;;;;11.52;4.95;;;16.50;99.90;;;;;;5072259;28;20055;-51
2022/04/13 12:00:42;;;;;;;11.35;6.05;;;16.50;99.90;;;;;;5073504;28;20044;-50
2022/04/13 12:03:12;;;;;;;15.65;5.55;;;16.30;99.90;;;;;;5073326;28;20074;-51
2022/04/13 12:05:39;;;;;;;13.45;5.13;;;16.20;99.90;;;;;;5073186;28;20040;-53
2022/04/13 12:08:30;;;;;;;15.55;6.45;;;16.40;99.90;;;;;;5073124;28;20076;-50
2022/04/13 12:11:11;;;;;;;15.60;5.85;;;16.40;99.90;;;;;;5073341;28;20040;-52
2022/04/13 12:13:54;;;;;;;15.77;7.05;;;16.30;99.90;;;;;;5071892;28;20448;-51
2022/04/13 12:16:25;;;;;;;16.58;7.45;;;16.30;99.90;;;;;;5072935;28;20040;-52
2022/04/13 12:18:53;;;;;;;14.80;7.43;;;16.30;99.90;;;;;;5072914;28;20480;-52
2022/04/13 12:21:24;;;;;;;18.83;6.65;;;16.30;99.90;;;;;;5073176;28;20048;-49
2022/04/13 12:23:51;;;;;;;16.95;7.38;;;16.20;99.90;;;;;;5061530;28;20426;-52
2022/04/13 12:26:28;;;;;;;14.02;6.13;;;16.00;99.90;;;;;;5052825;28;20049;-50
2022/04/13 12:28:53;;;;;;;11.88;5.72;;;16.10;99.90;;;;;;5052595;28;20048;-52
2022/04/13 12:31:19;;;;;;;15.15;6.28;;;16.10;99.90;;;;;;5052745;28;20041;-50
2022/04/13 12:33:45;;;;;;;14.18;7.15;;;15.90;99.90;;;;;;5067665;28;20055;-51